MAPA DE AEROPUERTO

INFORMACIÓN METAR y TAF


Deprecated: The each() function is deprecated. This message will be suppressed on further calls in /home/customer/www/clickair-va.com/public_html/VAM/vam/helpers/get_metar.php on line 20
METAR FOR LEIB
ADDS - METARS form results

(1213 UTC 13 September 2022)
Data provider http://aviationweather.gov/metar/data/
 
METAR text: LEIB 131200Z 10005KT 060V150 9999 BKN018 30/24 Q1011 NOSIG
Conditions at: LEIB (IBIZA/ES CODOLA , ES) observed 1200 UTC 13 September 2022
Temperature: 30.0°C (86°F)
Dewpoint: 24.0°C (75°F) [RH = 70%]
Pressure (altimeter): 29.85 inches Hg (1011.0 mb)
Winds: from the E (100 degrees) at 6 MPH (5 knots; 2.6 m/s)
Visibility: 6 or more miles (10+ km)
Ceiling: 1800 feet AGL
Clouds: broken clouds at 1800 feet AGL
Weather: no significant weather observed at this time

METAR text: LEIB 131130Z VRB02KT 9999 FEW013 BKN018 30/25 Q1011 NOSIG
Conditions at: LEIB (IBIZA/ES CODOLA , ES) observed 1130 UTC 13 September 2022
Temperature: 30.0°C (86°F)
Dewpoint: 25.0°C (77°F) [RH = 75%]
Pressure (altimeter): 29.85 inches Hg (1011.0 mb)
Winds: variable direction winds at 2 MPH (2 knots; 1.0 m/s)
Visibility: 6 or more miles (10+ km)
Ceiling: 1800 feet AGL
Clouds: few clouds at 1300 feet AGL
broken clouds at 1800 feet AGL
Weather: no significant weather observed at this time

Forecast for: LEIB (IBIZA/ES CODOLA , ES)
Text: TAF LEIB 130800Z 1309/1409 06009KT 9999 FEW015 TX32/1312Z TN23/1406Z
Forecast period: 0900 to 2000 UTC 13 September 2022
Forecast type: FROM: standard forecast or significant change
Winds: from the ENE (60 degrees) at 10 MPH (9 knots; 4.6 m/s)
Visibility: 6 or more miles (10+ km)
Ceiling: at least 12,000 feet AGL
Clouds: few clouds at 1500 feet AGL
Weather: no significant weather forecast for this period
Text: TEMPO 1310/1320 05015G25KT
Forecast period: 1000 to 2000 UTC 13 September 2022
Forecast type: TEMPORARY: The following changes expected for less than half the time period
Winds: from the NE (50 degrees) at 17 MPH (15 knots; 7.7 m/s)
gusting to 29 MPH (25 knots; 12.9 m/s)
Visibility: missing
Ceiling: unknown
Clouds: missing
Weather: no significant weather forecast for this period
Text: BECMG 1320/1322 29006KT
Forecast period: 2000 UTC 13 September 2022 to 0900 UTC 14 September 2022
Forecast type: BECOMING: Conditions expected to become as follows by 2200 UTC 13 September 2022
Winds: from the WNW (290 degrees) at 7 MPH (6 knots; 3.1 m/s)
Visibility: 6 or more miles (10+ km)
Ceiling: at least 12,000 feet AGL
Clouds: few clouds at 1500 feet AGL
Weather: no significant weather forecast for this period